sensor_id;sensor_type;location;lat;lon;timestamp;P1;durP1;ratioP1;P2;durP2;ratioP2
11608;SDS011;5860;52.018;8.536;2023-04-06T00:00:14;9.10;;;6.80;;
11608;SDS011;5860;52.018;8.536;2023-04-06T00:02:42;9.00;;;6.80;;
11608;SDS011;5860;52.018;8.536;2023-04-06T00:05:09;12.40;;;7.50;;
11608;SDS011;5860;52.018;8.536;2023-04-06T00:07:36;11.90;;;6.80;;
11608;SDS011;5860;52.018;8.536;2023-04-06T00:10:03;8.80;;;7.10;;
11608;SDS011;5860;52.018;8.536;2023-04-06T00:12:30;9.30;;;6.97;;
11608;SDS011;5860;52.018;8.536;2023-04-06T00:14:57;11.63;;;7.53;;
11608;SDS011;5860;52.018;8.536;2023-04-06T00:17:24;8.60;;;6.60;;
11608;SDS011;5860;52.018;8.536;2023-04-06T00:19:51;8.57;;;7.07;;
11608;SDS011;5860;52.018;8.536;2023-04-06T00:22:18;10.00;;;7.07;;
11608;SDS011;5860;52.018;8.536;2023-04-06T00:24:45;11.87;;;7.23;;
11608;SDS011;5860;52.018;8.536;2023-04-06T00:27:12;11.73;;;6.87;;
11608;SDS011;5860;52.018;8.536;2023-04-06T00:29:39;9.77;;;6.93;;
11608;SDS011;5860;52.018;8.536;2023-04-06T00:32:07;11.07;;;6.70;;
11608;SDS011;5860;52.018;8.536;2023-04-06T00:34:34;11.17;;;6.90;;
11608;SDS011;5860;52.018;8.536;2023-04-06T00:37:01;12.33;;;7.47;;
11608;SDS011;5860;52.018;8.536;2023-04-06T00:39:28;10.17;;;6.83;;
11608;SDS011;5860;52.018;8.536;2023-04-06T00:41:55;8.27;;;6.97;;
11608;SDS011;5860;52.018;8.536;2023-04-06T00:44:23;10.13;;;6.93;;
11608;SDS011;5860;52.018;8.536;2023-04-06T00:46:51;8.63;;;7.23;;
11608;SDS011;5860;52.018;8.536;2023-04-06T00:49:18;8.43;;;6.77;;
11608;SDS011;5860;52.018;8.536;2023-04-06T00:51:47;11.80;;;7.83;;
11608;SDS011;5860;52.018;8.536;2023-04-06T00:54:14;9.83;;;7.40;;
11608;SDS011;5860;52.018;8.536;2023-04-06T00:56:41;12.70;;;6.63;;
11608;SDS011;5860;52.018;8.536;2023-04-06T00:59:10;9.30;;;7.20;;
11608;SDS011;5860;52.018;8.536;2023-04-06T01:01:37;11.17;;;7.20;;
11608;SDS011;5860;52.018;8.536;2023-04-06T01:04:06;9.57;;;6.70;;
11608;SDS011;5860;52.018;8.536;2023-04-06T01:06:33;11.10;;;7.00;;
11608;SDS011;5860;52.018;8.536;2023-04-06T01:09:00;8.73;;;6.47;;
11608;SDS011;5860;52.018;8.536;2023-04-06T01:11:27;9.73;;;6.30;;
11608;SDS011;5860;52.018;8.536;2023-04-06T01:13:54;9.97;;;7.13;;
11608;SDS011;5860;52.018;8.536;2023-04-06T01:16:21;8.77;;;6.30;;
11608;SDS011;5860;52.018;8.536;2023-04-06T01:18:49;11.80;;;6.13;;
11608;SDS011;5860;52.018;8.536;2023-04-06T01:21:16;9.13;;;7.00;;
11608;SDS011;5860;52.018;8.536;2023-04-06T01:23:44;7.83;;;6.33;;
11608;SDS011;5860;52.018;8.536;2023-04-06T01:26:12;8.90;;;6.50;;
11608;SDS011;5860;52.018;8.536;2023-04-06T01:28:40;10.03;;;6.37;;
11608;SDS011;5860;52.018;8.536;2023-04-06T01:31:07;8.87;;;6.90;;
11608;SDS011;5860;52.018;8.536;2023-04-06T01:33:35;10.37;;;6.43;;
11608;SDS011;5860;52.018;8.536;2023-04-06T01:36:03;8.87;;;6.63;;
11608;SDS011;5860;52.018;8.536;2023-04-06T01:38:31;7.90;;;6.57;;
11608;SDS011;5860;52.018;8.536;2023-04-06T01:40:57;8.87;;;7.30;;
11608;SDS011;5860;52.018;8.536;2023-04-06T01:43:24;11.13;;;6.27;;
11608;SDS011;5860;52.018;8.536;2023-04-06T01:45:51;11.67;;;6.30;;
11608;SDS011;5860;52.018;8.536;2023-04-06T01:48:18;9.93;;;6.90;;
11608;SDS011;5860;52.018;8.536;2023-04-06T01:50:45;8.17;;;6.60;;
11608;SDS011;5860;52.018;8.536;2023-04-06T01:53:12;9.83;;;6.40;;
11608;SDS011;5860;52.018;8.536;2023-04-06T01:55:40;9.50;;;6.50;;
11608;SDS011;5860;52.018;8.536;2023-04-06T01:58:07;8.57;;;6.37;;
11608;SDS011;5860;52.018;8.536;2023-04-06T02:00:34;8.63;;;6.53;;
11608;SDS011;5860;52.018;8.536;2023-04-06T02:03:01;12.03;;;6.93;;
11608;SDS011;5860;52.018;8.536;2023-04-06T02:05:29;9.90;;;6.93;;
11608;SDS011;5860;52.018;8.536;2023-04-06T02:07:59;8.97;;;6.33;;
11608;SDS011;5860;52.018;8.536;2023-04-06T02:10:26;8.57;;;6.80;;
11608;SDS011;5860;52.018;8.536;2023-04-06T02:12:53;8.43;;;6.57;;
11608;SDS011;5860;52.018;8.536;2023-04-06T02:15:20;9.50;;;6.60;;
11608;SDS011;5860;52.018;8.536;2023-04-06T02:17:47;10.17;;;6.50;;
11608;SDS011;5860;52.018;8.536;2023-04-06T02:20:15;8.30;;;6.10;;
11608;SDS011;5860;52.018;8.536;2023-04-06T02:22:42;8.97;;;6.97;;
11608;SDS011;5860;52.018;8.536;2023-04-06T02:25:12;9.50;;;6.63;;
11608;SDS011;5860;52.018;8.536;2023-04-06T02:27:42;10.80;;;6.60;;
11608;SDS011;5860;52.018;8.536;2023-04-06T02:30:11;12.50;;;6.70;;
11608;SDS011;5860;52.018;8.536;2023-04-06T02:32:38;10.57;;;6.97;;
11608;SDS011;5860;52.018;8.536;2023-04-06T02:35:06;10.20;;;7.17;;
11608;SDS011;5860;52.018;8.536;2023-04-06T02:37:33;7.87;;;6.43;;
11608;SDS011;5860;52.018;8.536;2023-04-06T02:40:00;10.83;;;7.10;;
11608;SDS011;5860;52.018;8.536;2023-04-06T02:42:27;10.60;;;7.80;;
11608;SDS011;5860;52.018;8.536;2023-04-06T02:44:53;9.60;;;7.37;;
11608;SDS011;5860;52.018;8.536;2023-04-06T02:47:22;9.37;;;7.03;;
11608;SDS011;5860;52.018;8.536;2023-04-06T02:49:51;10.73;;;6.87;;
11608;SDS011;5860;52.018;8.536;2023-04-06T02:52:19;11.23;;;6.97;;
11608;SDS011;5860;52.018;8.536;2023-04-06T02:54:46;8.93;;;7.40;;
11608;SDS011;5860;52.018;8.536;2023-04-06T02:57:13;12.13;;;7.70;;
11608;SDS011;5860;52.018;8.536;2023-04-06T02:59:40;11.13;;;7.63;;
11608;SDS011;5860;52.018;8.536;2023-04-06T03:02:07;9.50;;;7.40;;
11608;SDS011;5860;52.018;8.536;2023-04-06T03:04:35;13.70;;;8.27;;
11608;SDS011;5860;52.018;8.536;2023-04-06T03:07:02;13.87;;;7.83;;
11608;SDS011;5860;52.018;8.536;2023-04-06T03:09:29;10.50;;;7.80;;
11608;SDS011;5860;52.018;8.536;2023-04-06T03:11:56;11.20;;;7.83;;
11608;SDS011;5860;52.018;8.536;2023-04-06T03:14:23;14.07;;;8.33;;
11608;SDS011;5860;52.018;8.536;2023-04-06T03:16:53;12.03;;;8.20;;
11608;SDS011;5860;52.018;8.536;2023-04-06T03:19:20;9.27;;;7.80;;
11608;SDS011;5860;52.018;8.536;2023-04-06T03:21:46;12.07;;;8.07;;
11608;SDS011;5860;52.018;8.536;2023-04-06T03:24:19;12.03;;;7.83;;
11608;SDS011;5860;52.018;8.536;2023-04-06T03:26:46;12.23;;;7.60;;
11608;SDS011;5860;52.018;8.536;2023-04-06T03:29:19;13.17;;;7.83;;
11608;SDS011;5860;52.018;8.536;2023-04-06T03:31:46;12.27;;;8.03;;
11608;SDS011;5860;52.018;8.536;2023-04-06T03:34:13;10.93;;;7.80;;
11608;SDS011;5860;52.018;8.536;2023-04-06T03:36:40;11.60;;;8.00;;
11608;SDS011;5860;52.018;8.536;2023-04-06T03:39:07;9.87;;;7.57;;
11608;SDS011;5860;52.018;8.536;2023-04-06T03:41:34;12.90;;;7.87;;
11608;SDS011;5860;52.018;8.536;2023-04-06T03:44:05;10.90;;;7.67;;
11608;SDS011;5860;52.018;8.536;2023-04-06T03:46:32;11.50;;;8.10;;
11608;SDS011;5860;52.018;8.536;2023-04-06T03:48:59;11.67;;;7.93;;
11608;SDS011;5860;52.018;8.536;2023-04-06T03:51:26;12.57;;;8.73;;
11608;SDS011;5860;52.018;8.536;2023-04-06T03:53:53;10.90;;;7.80;;
11608;SDS011;5860;52.018;8.536;2023-04-06T03:56:21;13.47;;;8.33;;
11608;SDS011;5860;52.018;8.536;2023-04-06T03:58:48;10.67;;;8.07;;
11608;SDS011;5860;52.018;8.536;2023-04-06T04:01:18;13.63;;;8.23;;
11608;SDS011;5860;52.018;8.536;2023-04-06T04:03:45;9.27;;;7.83;;
11608;SDS011;5860;52.018;8.536;2023-04-06T04:06:16;10.63;;;8.20;;
11608;SDS011;5860;52.018;8.536;2023-04-06T04:08:43;11.20;;;8.07;;
11608;SDS011;5860;52.018;8.536;2023-04-06T04:11:10;9.63;;;7.97;;
11608;SDS011;5860;52.018;8.536;2023-04-06T04:13:37;11.47;;;8.47;;
11608;SDS011;5860;52.018;8.536;2023-04-06T04:16:05;13.57;;;8.47;;
11608;SDS011;5860;52.018;8.536;2023-04-06T04:18:32;12.10;;;8.80;;
11608;SDS011;5860;52.018;8.536;2023-04-06T04:20:59;14.43;;;8.93;;
11608;SDS011;5860;52.018;8.536;2023-04-06T04:23:26;12.43;;;8.80;;
11608;SDS011;5860;52.018;8.536;2023-04-06T04:25:56;11.53;;;8.80;;
11608;SDS011;5860;52.018;8.536;2023-04-06T04:28:23;12.07;;;8.43;;
11608;SDS011;5860;52.018;8.536;2023-04-06T04:30:51;11.67;;;8.07;;
11608;SDS011;5860;52.018;8.536;2023-04-06T04:33:17;11.97;;;8.93;;
11608;SDS011;5860;52.018;8.536;2023-04-06T04:35:44;14.97;;;9.20;;
11608;SDS011;5860;52.018;8.536;2023-04-06T04:38:11;11.77;;;9.13;;
11608;SDS011;5860;52.018;8.536;2023-04-06T04:40:38;17.67;;;9.33;;
11608;SDS011;5860;52.018;8.536;2023-04-06T04:43:05;11.03;;;8.63;;
11608;SDS011;5860;52.018;8.536;2023-04-06T04:45:32;12.70;;;9.17;;
11608;SDS011;5860;52.018;8.536;2023-04-06T04:47:59;11.53;;;8.90;;
11608;SDS011;5860;52.018;8.536;2023-04-06T04:50:26;14.70;;;9.23;;
11608;SDS011;5860;52.018;8.536;2023-04-06T04:52:53;13.00;;;9.10;;
11608;SDS011;5860;52.018;8.536;2023-04-06T04:55:20;14.67;;;9.37;;
11608;SDS011;5860;52.018;8.536;2023-04-06T04:57:47;13.63;;;9.87;;
11608;SDS011;5860;52.018;8.536;2023-04-06T05:00:14;16.33;;;9.57;;
11608;SDS011;5860;52.018;8.536;2023-04-06T05:02:41;13.30;;;10.07;;
11608;SDS011;5860;52.018;8.536;2023-04-06T05:05:08;11.53;;;9.20;;
11608;SDS011;5860;52.018;8.536;2023-04-06T05:07:35;14.93;;;9.60;;
11608;SDS011;5860;52.018;8.536;2023-04-06T05:10:02;13.90;;;10.10;;
11608;SDS011;5860;52.018;8.536;2023-04-06T05:12:31;12.07;;;8.97;;
11608;SDS011;5860;52.018;8.536;2023-04-06T05:15:01;15.90;;;8.93;;
11608;SDS011;5860;52.018;8.536;2023-04-06T05:17:27;12.40;;;9.33;;
11608;SDS011;5860;52.018;8.536;2023-04-06T05:19:55;12.47;;;9.03;;
11608;SDS011;5860;52.018;8.536;2023-04-06T05:22:22;12.03;;;9.03;;
11608;SDS011;5860;52.018;8.536;2023-04-06T05:24:49;13.53;;;9.83;;
11608;SDS011;5860;52.018;8.536;2023-04-06T05:27:16;15.17;;;9.40;;
11608;SDS011;5860;52.018;8.536;2023-04-06T05:29:43;11.97;;;9.63;;
11608;SDS011;5860;52.018;8.536;2023-04-06T05:32:10;11.27;;;9.17;;
11608;SDS011;5860;52.018;8.536;2023-04-06T05:34:37;14.70;;;9.30;;
11608;SDS011;5860;52.018;8.536;2023-04-06T05:37:04;14.43;;;9.60;;
11608;SDS011;5860;52.018;8.536;2023-04-06T05:39:31;10.67;;;8.73;;
11608;SDS011;5860;52.018;8.536;2023-04-06T05:42:01;13.77;;;8.60;;
11608;SDS011;5860;52.018;8.536;2023-04-06T05:44:30;15.93;;;9.10;;
11608;SDS011;5860;52.018;8.536;2023-04-06T05:46:57;11.17;;;9.10;;
11608;SDS011;5860;52.018;8.536;2023-04-06T05:49:24;14.83;;;8.17;;
11608;SDS011;5860;52.018;8.536;2023-04-06T05:51:51;15.67;;;9.50;;
11608;SDS011;5860;52.018;8.536;2023-04-06T05:54:18;13.07;;;8.80;;
11608;SDS011;5860;52.018;8.536;2023-04-06T05:56:46;12.30;;;8.40;;
11608;SDS011;5860;52.018;8.536;2023-04-06T05:59:13;13.13;;;8.63;;
11608;SDS011;5860;52.018;8.536;2023-04-06T06:01:40;11.87;;;9.17;;
11608;SDS011;5860;52.018;8.536;2023-04-06T06:04:07;10.77;;;7.47;;
11608;SDS011;5860;52.018;8.536;2023-04-06T06:06:34;10.63;;;7.93;;
11608;SDS011;5860;52.018;8.536;2023-04-06T06:09:04;13.13;;;7.27;;
11608;SDS011;5860;52.018;8.536;2023-04-06T06:11:31;10.53;;;7.47;;
11608;SDS011;5860;52.018;8.536;2023-04-06T06:13:59;7.83;;;6.80;;
11608;SDS011;5860;52.018;8.536;2023-04-06T06:16:26;10.67;;;7.47;;
11608;SDS011;5860;52.018;8.536;2023-04-06T06:18:53;8.70;;;7.00;;
11608;SDS011;5860;52.018;8.536;2023-04-06T06:21:20;10.33;;;6.80;;
11608;SDS011;5860;52.018;8.536;2023-04-06T06:23:47;10.47;;;7.50;;
11608;SDS011;5860;52.018;8.536;2023-04-06T06:26:15;8.97;;;7.27;;
11608;SDS011;5860;52.018;8.536;2023-04-06T06:28:43;9.70;;;7.68;;
11608;SDS011;5860;52.018;8.536;2023-04-06T06:31:10;9.98;;;7.95;;
11608;SDS011;5860;52.018;8.536;2023-04-06T06:33:37;10.40;;;7.97;;
11608;SDS011;5860;52.018;8.536;2023-04-06T06:36:04;12.90;;;8.20;;
11608;SDS011;5860;52.018;8.536;2023-04-06T06:38:31;15.75;;;8.13;;
11608;SDS011;5860;52.018;8.536;2023-04-06T06:40:58;14.15;;;8.25;;
11608;SDS011;5860;52.018;8.536;2023-04-06T06:43:25;14.48;;;7.60;;
11608;SDS011;5860;52.018;8.536;2023-04-06T06:45:52;11.40;;;7.95;;
11608;SDS011;5860;52.018;8.536;2023-04-06T06:48:19;10.88;;;8.00;;
11608;SDS011;5860;52.018;8.536;2023-04-06T06:50:47;10.73;;;8.10;;
11608;SDS011;5860;52.018;8.536;2023-04-06T06:53:14;9.52;;;7.35;;
11608;SDS011;5860;52.018;8.536;2023-04-06T06:55:42;9.48;;;7.45;;
11608;SDS011;5860;52.018;8.536;2023-04-06T06:58:10;11.77;;;7.72;;
11608;SDS011;5860;52.018;8.536;2023-04-06T07:00:37;9.02;;;7.45;;
11608;SDS011;5860;52.018;8.536;2023-04-06T07:03:04;13.75;;;7.35;;
11608;SDS011;5860;52.018;8.536;2023-04-06T07:05:32;7.95;;;7.15;;
11608;SDS011;5860;52.018;8.536;2023-04-06T07:07:59;11.05;;;7.80;;
11608;SDS011;5860;52.018;8.536;2023-04-06T07:10:26;8.48;;;7.25;;
11608;SDS011;5860;52.018;8.536;2023-04-06T07:12:53;9.10;;;7.95;;
11608;SDS011;5860;52.018;8.536;2023-04-06T07:15:23;8.83;;;7.60;;
11608;SDS011;5860;52.018;8.536;2023-04-06T07:17:50;15.60;;;8.53;;
11608;SDS011;5860;52.018;8.536;2023-04-06T07:20:18;13.27;;;9.37;;
11608;SDS011;5860;52.018;8.536;2023-04-06T07:22:45;16.63;;;8.87;;
11608;SDS011;5860;52.018;8.536;2023-04-06T07:25:12;11.03;;;8.47;;
11608;SDS011;5860;52.018;8.536;2023-04-06T07:27:40;12.73;;;8.43;;
11608;SDS011;5860;52.018;8.536;2023-04-06T07:30:07;9.17;;;7.73;;
11608;SDS011;5860;52.018;8.536;2023-04-06T07:32:34;13.60;;;7.67;;
11608;SDS011;5860;52.018;8.536;2023-04-06T07:35:02;19.20;;;7.93;;
11608;SDS011;5860;52.018;8.536;2023-04-06T07:37:29;10.33;;;7.83;;
11608;SDS011;5860;52.018;8.536;2023-04-06T07:39:56;12.07;;;7.40;;
11608;SDS011;5860;52.018;8.536;2023-04-06T07:42:23;15.27;;;7.90;;
11608;SDS011;5860;52.018;8.536;2023-04-06T07:44:50;14.60;;;7.97;;
11608;SDS011;5860;52.018;8.536;2023-04-06T07:47:17;12.23;;;7.80;;
11608;SDS011;5860;52.018;8.536;2023-04-06T07:49:44;11.40;;;7.87;;
11608;SDS011;5860;52.018;8.536;2023-04-06T07:52:11;16.30;;;8.17;;
11608;SDS011;5860;52.018;8.536;2023-04-06T07:54:40;11.23;;;7.80;;
11608;SDS011;5860;52.018;8.536;2023-04-06T07:57:08;13.00;;;7.70;;
11608;SDS011;5860;52.018;8.536;2023-04-06T07:59:34;11.13;;;7.80;;
11608;SDS011;5860;52.018;8.536;2023-04-06T08:02:01;10.50;;;7.83;;
11608;SDS011;5860;52.018;8.536;2023-04-06T08:04:28;11.17;;;7.73;;
11608;SDS011;5860;52.018;8.536;2023-04-06T08:06:56;10.77;;;7.40;;
11608;SDS011;5860;52.018;8.536;2023-04-06T08:09:22;11.77;;;7.60;;
11608;SDS011;5860;52.018;8.536;2023-04-06T08:11:50;9.43;;;7.37;;
11608;SDS011;5860;52.018;8.536;2023-04-06T08:14:16;10.87;;;7.20;;
11608;SDS011;5860;52.018;8.536;2023-04-06T08:16:43;9.10;;;6.93;;
11608;SDS011;5860;52.018;8.536;2023-04-06T08:19:10;13.30;;;6.90;;
11608;SDS011;5860;52.018;8.536;2023-04-06T08:21:38;10.33;;;6.97;;
11608;SDS011;5860;52.018;8.536;2023-04-06T08:24:08;11.77;;;7.00;;
11608;SDS011;5860;52.018;8.536;2023-04-06T08:26:36;15.00;;;6.50;;
11608;SDS011;5860;52.018;8.536;2023-04-06T08:29:03;9.07;;;6.40;;
11608;SDS011;5860;52.018;8.536;2023-04-06T08:31:30;11.90;;;6.47;;
11608;SDS011;5860;52.018;8.536;2023-04-06T08:33:57;8.50;;;6.40;;
11608;SDS011;5860;52.018;8.536;2023-04-06T08:36:24;8.67;;;5.80;;
11608;SDS011;5860;52.018;8.536;2023-04-06T08:38:51;7.73;;;5.33;;
11608;SDS011;5860;52.018;8.536;2023-04-06T08:41:19;8.60;;;5.10;;
11608;SDS011;5860;52.018;8.536;2023-04-06T08:43:47;7.30;;;5.10;;
11608;SDS011;5860;52.018;8.536;2023-04-06T08:46:30;7.83;;;5.67;;
11608;SDS011;5860;52.018;8.536;2023-04-06T08:48:58;12.03;;;6.27;;
11608;SDS011;5860;52.018;8.536;2023-04-06T08:51:28;7.67;;;5.33;;
11608;SDS011;5860;52.018;8.536;2023-04-06T08:53:57;8.23;;;5.53;;
11608;SDS011;5860;52.018;8.536;2023-04-06T08:56:26;8.10;;;5.77;;
11608;SDS011;5860;52.018;8.536;2023-04-06T08:58:54;7.87;;;5.37;;
11608;SDS011;5860;52.018;8.536;2023-04-06T09:01:23;10.40;;;5.77;;
11608;SDS011;5860;52.018;8.536;2023-04-06T09:03:57;9.97;;;6.30;;
11608;SDS011;5860;52.018;8.536;2023-04-06T09:06:25;10.00;;;5.73;;
11608;SDS011;5860;52.018;8.536;2023-04-06T09:08:53;7.33;;;5.73;;
11608;SDS011;5860;52.018;8.536;2023-04-06T09:11:21;7.73;;;6.50;;
11608;SDS011;5860;52.018;8.536;2023-04-06T09:13:49;7.73;;;5.43;;
11608;SDS011;5860;52.018;8.536;2023-04-06T09:16:16;8.43;;;6.20;;
11608;SDS011;5860;52.018;8.536;2023-04-06T09:18:44;10.93;;;5.90;;
11608;SDS011;5860;52.018;8.536;2023-04-06T09:21:11;12.37;;;6.03;;
11608;SDS011;5860;52.018;8.536;2023-04-06T09:23:38;11.27;;;6.13;;
11608;SDS011;5860;52.018;8.536;2023-04-06T09:26:15;11.30;;;6.20;;
11608;SDS011;5860;52.018;8.536;2023-04-06T09:28:47;8.50;;;5.90;;
11608;SDS011;5860;52.018;8.536;2023-04-06T09:31:20;9.37;;;6.57;;
11608;SDS011;5860;52.018;8.536;2023-04-06T09:33:48;7.83;;;5.87;;
11608;SDS011;5860;52.018;8.536;2023-04-06T09:36:16;9.10;;;6.50;;
11608;SDS011;5860;52.018;8.536;2023-04-06T09:39:00;9.67;;;6.53;;
11608;SDS011;5860;52.018;8.536;2023-04-06T09:41:35;10.87;;;7.10;;
11608;SDS011;5860;52.018;8.536;2023-04-06T09:44:09;7.50;;;6.17;;
11608;SDS011;5860;52.018;8.536;2023-04-06T09:46:41;9.63;;;6.93;;
11608;SDS011;5860;52.018;8.536;2023-04-06T09:49:28;10.80;;;6.80;;
11608;SDS011;5860;52.018;8.536;2023-04-06T09:52:03;11.90;;;7.07;;
11608;SDS011;5860;52.018;8.536;2023-04-06T09:54:33;10.30;;;7.07;;
11608;SDS011;5860;52.018;8.536;2023-04-06T09:57:25;9.90;;;6.97;;
11608;SDS011;5860;52.018;8.536;2023-04-06T10:08:05;10.73;;;6.63;;
11608;SDS011;5860;52.018;8.536;2023-04-06T10:10:35;11.27;;;6.77;;
11608;SDS011;5860;52.018;8.536;2023-04-06T10:13:03;10.00;;;7.73;;
11608;SDS011;5860;52.018;8.536;2023-04-06T10:15:31;9.97;;;7.60;;
11608;SDS011;5860;52.018;8.536;2023-04-06T10:17:58;10.03;;;7.67;;
11608;SDS011;5860;52.018;8.536;2023-04-06T10:23:19;9.13;;;7.60;;
11608;SDS011;5860;52.018;8.536;2023-04-06T10:25:53;9.23;;;7.63;;
11608;SDS011;5860;52.018;8.536;2023-04-06T10:28:25;10.90;;;7.80;;
11608;SDS011;5860;52.018;8.536;2023-04-06T10:31:00;9.43;;;7.50;;
11608;SDS011;5860;52.018;8.536;2023-04-06T10:33:30;9.87;;;7.80;;
11608;SDS011;5860;52.018;8.536;2023-04-06T10:35:58;10.93;;;7.77;;
11608;SDS011;5860;52.018;8.536;2023-04-06T10:38:38;8.97;;;7.60;;
11608;SDS011;5860;52.018;8.536;2023-04-06T10:41:11;10.07;;;7.60;;
11608;SDS011;5860;52.018;8.536;2023-04-06T10:43:40;9.60;;;7.47;;
11608;SDS011;5860;52.018;8.536;2023-04-06T10:46:08;11.80;;;7.77;;
11608;SDS011;5860;52.018;8.536;2023-04-06T10:48:37;10.07;;;7.70;;
11608;SDS011;5860;52.018;8.536;2023-04-06T10:51:10;12.37;;;8.40;;
11608;SDS011;5860;52.018;8.536;2023-04-06T10:53:43;9.18;;;7.13;;
11608;SDS011;5860;52.018;8.536;2023-04-06T10:56:13;10.38;;;8.18;;
11608;SDS011;5860;52.018;8.536;2023-04-06T10:58:48;9.50;;;7.97;;
11608;SDS011;5860;52.018;8.536;2023-04-06T11:01:20;11.27;;;8.43;;
11608;SDS011;5860;52.018;8.536;2023-04-06T11:03:49;11.80;;;8.65;;
11608;SDS011;5860;52.018;8.536;2023-04-06T11:06:19;13.43;;;9.55;;
11608;SDS011;5860;52.018;8.536;2023-04-06T11:08:47;11.98;;;9.25;;
11608;SDS011;5860;52.018;8.536;2023-04-06T11:11:15;11.15;;;8.93;;
11608;SDS011;5860;52.018;8.536;2023-04-06T11:13:48;10.65;;;8.48;;
11608;SDS011;5860;52.018;8.536;2023-04-06T11:16:26;10.48;;;8.48;;
11608;SDS011;5860;52.018;8.536;2023-04-06T11:18:59;10.80;;;8.90;;
11608;SDS011;5860;52.018;8.536;2023-04-06T11:24:15;13.43;;;9.40;;
11608;SDS011;5860;52.018;8.536;2023-04-06T11:26:45;10.75;;;8.88;;
11608;SDS011;5860;52.018;8.536;2023-04-06T11:29:13;9.50;;;8.30;;
11608;SDS011;5860;52.018;8.536;2023-04-06T11:31:45;11.40;;;8.57;;
11608;SDS011;5860;52.018;8.536;2023-04-06T11:34:21;10.27;;;8.67;;
11608;SDS011;5860;52.018;8.536;2023-04-06T11:36:49;13.53;;;9.43;;
11608;SDS011;5860;52.018;8.536;2023-04-06T11:39:25;13.97;;;9.53;;
11608;SDS011;5860;52.018;8.536;2023-04-06T11:41:54;12.47;;;9.13;;
11608;SDS011;5860;52.018;8.536;2023-04-06T11:44:42;12.60;;;9.23;;
11608;SDS011;5860;52.018;8.536;2023-04-06T11:47:12;14.70;;;8.90;;
11608;SDS011;5860;52.018;8.536;2023-04-06T11:49:40;12.83;;;8.80;;
11608;SDS011;5860;52.018;8.536;2023-04-06T11:52:18;14.30;;;9.70;;
11608;SDS011;5860;52.018;8.536;2023-04-06T11:54:47;12.23;;;9.83;;
11608;SDS011;5860;52.018;8.536;2023-04-06T11:57:16;12.90;;;9.97;;
11608;SDS011;5860;52.018;8.536;2023-04-06T11:59:44;13.23;;;10.43;;
11608;SDS011;5860;52.018;8.536;2023-04-06T12:02:11;12.60;;;9.10;;
11608;SDS011;5860;52.018;8.536;2023-04-06T12:04:38;12.70;;;9.20;;
11608;SDS011;5860;52.018;8.536;2023-04-06T12:07:05;12.67;;;9.27;;
11608;SDS011;5860;52.018;8.536;2023-04-06T12:09:33;14.33;;;9.60;;
11608;SDS011;5860;52.018;8.536;2023-04-06T12:12:00;13.63;;;9.97;;
11608;SDS011;5860;52.018;8.536;2023-04-06T12:14:28;13.23;;;9.20;;
11608;SDS011;5860;52.018;8.536;2023-04-06T12:16:57;12.40;;;8.67;;
11608;SDS011;5860;52.018;8.536;2023-04-06T12:19:24;11.97;;;8.43;;
11608;SDS011;5860;52.018;8.536;2023-04-06T12:21:52;9.87;;;7.47;;
11608;SDS011;5860;52.018;8.536;2023-04-06T12:24:21;11.23;;;7.33;;
11608;SDS011;5860;52.018;8.536;2023-04-06T12:26:48;12.43;;;7.50;;
11608;SDS011;5860;52.018;8.536;2023-04-06T12:29:24;11.80;;;8.27;;
11608;SDS011;5860;52.018;8.536;2023-04-06T12:31:52;12.23;;;7.63;;
11608;SDS011;5860;52.018;8.536;2023-04-06T12:34:19;11.57;;;7.80;;
11608;SDS011;5860;52.018;8.536;2023-04-06T12:36:46;9.17;;;7.23;;
11608;SDS011;5860;52.018;8.536;2023-04-06T12:39:13;11.93;;;8.30;;
11608;SDS011;5860;52.018;8.536;2023-04-06T12:41:45;9.67;;;7.03;;
11608;SDS011;5860;52.018;8.536;2023-04-06T12:44:12;10.47;;;7.90;;
11608;SDS011;5860;52.018;8.536;2023-04-06T12:46:39;11.27;;;7.50;;
11608;SDS011;5860;52.018;8.536;2023-04-06T12:49:06;10.07;;;7.83;;
11608;SDS011;5860;52.018;8.536;2023-04-06T12:51:33;10.33;;;7.73;;
11608;SDS011;5860;52.018;8.536;2023-04-06T12:54:01;9.63;;;7.37;;
11608;SDS011;5860;52.018;8.536;2023-04-06T12:56:28;10.63;;;7.97;;
11608;SDS011;5860;52.018;8.536;2023-04-06T12:58:54;10.60;;;7.63;;
11608;SDS011;5860;52.018;8.536;2023-04-06T13:01:22;10.20;;;7.73;;
11608;SDS011;5860;52.018;8.536;2023-04-06T13:03:50;9.60;;;6.97;;
11608;SDS011;5860;52.018;8.536;2023-04-06T13:06:17;10.07;;;7.53;;
11608;SDS011;5860;52.018;8.536;2023-04-06T13:08:44;11.67;;;7.30;;
11608;SDS011;5860;52.018;8.536;2023-04-06T13:11:13;9.70;;;7.60;;
11608;SDS011;5860;52.018;8.536;2023-04-06T13:13:40;10.10;;;8.00;;
11608;SDS011;5860;52.018;8.536;2023-04-06T13:16:08;12.80;;;7.83;;
11608;SDS011;5860;52.018;8.536;2023-04-06T13:18:35;9.63;;;7.43;;
11608;SDS011;5860;52.018;8.536;2023-04-06T13:21:05;10.83;;;7.97;;
11608;SDS011;5860;52.018;8.536;2023-04-06T13:23:33;12.67;;;7.73;;
11608;SDS011;5860;52.018;8.536;2023-04-06T13:28:30;10.33;;;7.10;;
11608;SDS011;5860;52.018;8.536;2023-04-06T13:30:58;12.90;;;8.53;;
11608;SDS011;5860;52.018;8.536;2023-04-06T13:33:27;11.63;;;9.27;;
11608;SDS011;5860;52.018;8.536;2023-04-06T13:35:55;11.67;;;8.30;;
11608;SDS011;5860;52.018;8.536;2023-04-06T13:38:23;12.57;;;8.73;;
11608;SDS011;5860;52.018;8.536;2023-04-06T13:40:52;11.73;;;7.80;;
11608;SDS011;5860;52.018;8.536;2023-04-06T13:43:20;11.17;;;8.07;;
11608;SDS011;5860;52.018;8.536;2023-04-06T13:45:50;9.70;;;7.30;;
11608;SDS011;5860;52.018;8.536;2023-04-06T13:48:20;10.87;;;7.30;;
11608;SDS011;5860;52.018;8.536;2023-04-06T13:50:47;10.80;;;7.80;;
11608;SDS011;5860;52.018;8.536;2023-04-06T13:53:14;11.20;;;7.63;;
11608;SDS011;5860;52.018;8.536;2023-04-06T13:55:41;12.63;;;8.30;;
11608;SDS011;5860;52.018;8.536;2023-04-06T13:58:08;10.63;;;8.03;;
11608;SDS011;5860;52.018;8.536;2023-04-06T14:00:35;12.90;;;9.00;;
11608;SDS011;5860;52.018;8.536;2023-04-06T14:03:03;13.13;;;9.77;;
11608;SDS011;5860;52.018;8.536;2023-04-06T14:05:31;15.70;;;9.03;;
11608;SDS011;5860;52.018;8.536;2023-04-06T14:07:58;11.80;;;8.60;;
11608;SDS011;5860;52.018;8.536;2023-04-06T14:10:25;13.40;;;9.33;;
11608;SDS011;5860;52.018;8.536;2023-04-06T14:12:54;11.53;;;9.30;;
11608;SDS011;5860;52.018;8.536;2023-04-06T14:15:22;14.63;;;9.83;;
11608;SDS011;5860;52.018;8.536;2023-04-06T14:17:50;13.03;;;9.83;;
11608;SDS011;5860;52.018;8.536;2023-04-06T14:20:18;12.97;;;9.80;;
11608;SDS011;5860;52.018;8.536;2023-04-06T14:22:45;13.97;;;9.80;;
11608;SDS011;5860;52.018;8.536;2023-04-06T14:25:13;12.10;;;9.87;;
11608;SDS011;5860;52.018;8.536;2023-04-06T14:27:40;14.10;;;10.63;;
11608;SDS011;5860;52.018;8.536;2023-04-06T14:30:07;14.23;;;10.80;;
11608;SDS011;5860;52.018;8.536;2023-04-06T14:32:34;15.53;;;10.10;;
11608;SDS011;5860;52.018;8.536;2023-04-06T14:35:05;14.13;;;10.50;;
11608;SDS011;5860;52.018;8.536;2023-04-06T14:37:33;14.07;;;10.30;;
11608;SDS011;5860;52.018;8.536;2023-04-06T14:40:00;16.30;;;10.87;;
11608;SDS011;5860;52.018;8.536;2023-04-06T14:42:28;15.77;;;10.27;;
11608;SDS011;5860;52.018;8.536;2023-04-06T14:44:55;13.23;;;9.87;;
11608;SDS011;5860;52.018;8.536;2023-04-06T14:47:22;14.40;;;10.03;;
11608;SDS011;5860;52.018;8.536;2023-04-06T14:49:50;14.30;;;10.33;;
11608;SDS011;5860;52.018;8.536;2023-04-06T14:52:18;14.83;;;10.93;;
11608;SDS011;5860;52.018;8.536;2023-04-06T14:54:45;14.03;;;10.67;;
11608;SDS011;5860;52.018;8.536;2023-04-06T14:57:13;15.33;;;10.37;;
11608;SDS011;5860;52.018;8.536;2023-04-06T14:59:40;12.93;;;10.60;;
11608;SDS011;5860;52.018;8.536;2023-04-06T15:02:07;15.67;;;10.13;;
11608;SDS011;5860;52.018;8.536;2023-04-06T15:04:34;13.10;;;10.20;;
11608;SDS011;5860;52.018;8.536;2023-04-06T15:07:02;15.70;;;10.60;;
11608;SDS011;5860;52.018;8.536;2023-04-06T15:09:29;13.83;;;10.30;;
11608;SDS011;5860;52.018;8.536;2023-04-06T15:11:56;16.83;;;10.70;;